sensor_id;sensor_type;location;lat;lon;timestamp;P1;durP1;ratioP1;P2;durP2;ratioP2
66521;SDS011;53349;53.538;8.584;2023-01-08T00:01:19;6.17;;;3.10;;
66521;SDS011;53349;53.538;8.584;2023-01-08T00:03:46;5.47;;;2.83;;
66521;SDS011;53349;53.538;8.584;2023-01-08T00:06:13;5.50;;;2.80;;
66521;SDS011;53349;53.538;8.584;2023-01-08T00:08:41;6.68;;;3.10;;
66521;SDS011;53349;53.538;8.584;2023-01-08T00:11:07;7.90;;;3.00;;
66521;SDS011;53349;53.538;8.584;2023-01-08T00:13:33;6.47;;;2.90;;
66521;SDS011;53349;53.538;8.584;2023-01-08T00:16:06;5.68;;;2.72;;
66521;SDS011;53349;53.538;8.584;2023-01-08T00:18:35;7.35;;;3.13;;
66521;SDS011;53349;53.538;8.584;2023-01-08T00:21:01;7.00;;;2.83;;
66521;SDS011;53349;53.538;8.584;2023-01-08T00:23:26;5.33;;;2.67;;
66521;SDS011;53349;53.538;8.584;2023-01-08T00:25:52;6.22;;;2.90;;
66521;SDS011;53349;53.538;8.584;2023-01-08T00:28:17;7.97;;;3.13;;
66521;SDS011;53349;53.538;8.584;2023-01-08T00:30:43;7.10;;;2.90;;
66521;SDS011;53349;53.538;8.584;2023-01-08T00:33:09;5.47;;;2.80;;
66521;SDS011;53349;53.538;8.584;2023-01-08T00:35:37;6.30;;;3.20;;
66521;SDS011;53349;53.538;8.584;2023-01-08T00:38:03;5.70;;;2.97;;
66521;SDS011;53349;53.538;8.584;2023-01-08T00:40:29;7.30;;;3.13;;
66521;SDS011;53349;53.538;8.584;2023-01-08T00:42:54;6.67;;;2.90;;
66521;SDS011;53349;53.538;8.584;2023-01-08T00:45:19;5.67;;;2.77;;
66521;SDS011;53349;53.538;8.584;2023-01-08T00:47:45;4.95;;;2.60;;
66521;SDS011;53349;53.538;8.584;2023-01-08T00:50:10;5.88;;;2.83;;
66521;SDS011;53349;53.538;8.584;2023-01-08T00:52:36;5.37;;;2.70;;
66521;SDS011;53349;53.538;8.584;2023-01-08T00:55:02;6.78;;;2.88;;
66521;SDS011;53349;53.538;8.584;2023-01-08T00:57:33;5.50;;;2.88;;
66521;SDS011;53349;53.538;8.584;2023-01-08T00:59:59;6.45;;;2.72;;
66521;SDS011;53349;53.538;8.584;2023-01-08T01:02:24;6.00;;;3.10;;
66521;SDS011;53349;53.538;8.584;2023-01-08T01:04:51;7.70;;;3.30;;
66521;SDS011;53349;53.538;8.584;2023-01-08T01:07:19;6.07;;;2.90;;
66521;SDS011;53349;53.538;8.584;2023-01-08T01:09:45;6.10;;;3.30;;
66521;SDS011;53349;53.538;8.584;2023-01-08T01:12:13;4.90;;;2.70;;
66521;SDS011;53349;53.538;8.584;2023-01-08T01:14:39;5.57;;;3.13;;
66521;SDS011;53349;53.538;8.584;2023-01-08T01:17:04;5.87;;;2.77;;
66521;SDS011;53349;53.538;8.584;2023-01-08T01:19:30;5.77;;;3.17;;
66521;SDS011;53349;53.538;8.584;2023-01-08T01:21:55;6.20;;;3.17;;
66521;SDS011;53349;53.538;8.584;2023-01-08T01:24:20;5.55;;;3.10;;
66521;SDS011;53349;53.538;8.584;2023-01-08T01:26:46;6.60;;;3.05;;
66521;SDS011;53349;53.538;8.584;2023-01-08T01:29:11;5.43;;;2.93;;
66521;SDS011;53349;53.538;8.584;2023-01-08T01:31:37;6.60;;;3.17;;
66521;SDS011;53349;53.538;8.584;2023-01-08T01:34:02;6.70;;;3.53;;
66521;SDS011;53349;53.538;8.584;2023-01-08T01:36:27;7.73;;;3.50;;
66521;SDS011;53349;53.538;8.584;2023-01-08T01:38:55;6.22;;;3.30;;
66521;SDS011;53349;53.538;8.584;2023-01-08T01:41:28;6.30;;;3.03;;
66521;SDS011;53349;53.538;8.584;2023-01-08T01:46:57;5.88;;;3.20;;
66521;SDS011;53349;53.538;8.584;2023-01-08T01:49:23;5.00;;;3.03;;
66521;SDS011;53349;53.538;8.584;2023-01-08T01:51:50;6.90;;;3.33;;
66521;SDS011;53349;53.538;8.584;2023-01-08T01:54:19;6.85;;;3.35;;
66521;SDS011;53349;53.538;8.584;2023-01-08T01:56:45;6.30;;;3.13;;
66521;SDS011;53349;53.538;8.584;2023-01-08T01:59:11;5.88;;;3.38;;
66521;SDS011;53349;53.538;8.584;2023-01-08T02:01:36;6.53;;;3.33;;
66521;SDS011;53349;53.538;8.584;2023-01-08T02:04:02;5.70;;;3.10;;
66521;SDS011;53349;53.538;8.584;2023-01-08T02:09:29;6.23;;;3.40;;
66521;SDS011;53349;53.538;8.584;2023-01-08T02:12:07;6.45;;;3.60;;
66521;SDS011;53349;53.538;8.584;2023-01-08T02:14:40;6.75;;;3.30;;
66521;SDS011;53349;53.538;8.584;2023-01-08T02:28:10;6.80;;;3.22;;
66521;SDS011;53349;53.538;8.584;2023-01-08T02:30:37;7.40;;;3.40;;
66521;SDS011;53349;53.538;8.584;2023-01-08T02:33:03;6.00;;;3.67;;
66521;SDS011;53349;53.538;8.584;2023-01-08T02:35:36;7.97;;;3.80;;
66521;SDS011;53349;53.538;8.584;2023-01-08T02:38:08;6.50;;;3.40;;
66521;SDS011;53349;53.538;8.584;2023-01-08T02:40:41;7.50;;;3.50;;
66521;SDS011;53349;53.538;8.584;2023-01-08T02:43:54;7.10;;;3.55;;
66521;SDS011;53349;53.538;8.584;2023-01-08T02:46:19;7.30;;;3.53;;
66521;SDS011;53349;53.538;8.584;2023-01-08T02:48:51;5.27;;;3.20;;
66521;SDS011;53349;53.538;8.584;2023-01-08T02:51:32;6.70;;;3.58;;
66521;SDS011;53349;53.538;8.584;2023-01-08T02:54:04;8.10;;;3.70;;
66521;SDS011;53349;53.538;8.584;2023-01-08T02:56:36;6.72;;;3.17;;
66521;SDS011;53349;53.538;8.584;2023-01-08T02:59:04;6.13;;;3.45;;
66521;SDS011;53349;53.538;8.584;2023-01-08T03:01:31;8.27;;;3.60;;
66521;SDS011;53349;53.538;8.584;2023-01-08T03:04:05;7.28;;;3.63;;
66521;SDS011;53349;53.538;8.584;2023-01-08T03:06:35;8.80;;;4.22;;
66521;SDS011;53349;53.538;8.584;2023-01-08T03:09:02;6.82;;;3.70;;
66521;SDS011;53349;53.538;8.584;2023-01-08T03:11:31;7.40;;;3.67;;
66521;SDS011;53349;53.538;8.584;2023-01-08T03:21:48;7.20;;;3.95;;
66521;SDS011;53349;53.538;8.584;2023-01-08T03:24:16;6.93;;;3.85;;
66521;SDS011;53349;53.538;8.584;2023-01-08T03:26:45;8.48;;;4.20;;
66521;SDS011;53349;53.538;8.584;2023-01-08T03:29:12;7.13;;;3.53;;
66521;SDS011;53349;53.538;8.584;2023-01-08T03:31:41;7.03;;;3.53;;
66521;SDS011;53349;53.538;8.584;2023-01-08T03:34:08;7.80;;;3.95;;
66521;SDS011;53349;53.538;8.584;2023-01-08T03:36:35;7.03;;;3.97;;
66521;SDS011;53349;53.538;8.584;2023-01-08T03:39:27;7.32;;;4.10;;
66521;SDS011;53349;53.538;8.584;2023-01-08T03:41:55;7.10;;;3.90;;
66521;SDS011;53349;53.538;8.584;2023-01-08T03:44:23;8.02;;;4.28;;
66521;SDS011;53349;53.538;8.584;2023-01-08T03:46:49;7.87;;;4.27;;
66521;SDS011;53349;53.538;8.584;2023-01-08T03:49:18;8.38;;;4.28;;
66521;SDS011;53349;53.538;8.584;2023-01-08T03:51:46;7.53;;;4.10;;
66521;SDS011;53349;53.538;8.584;2023-01-08T03:54:13;8.55;;;4.18;;
66521;SDS011;53349;53.538;8.584;2023-01-08T03:56:40;7.82;;;4.68;;
66521;SDS011;53349;53.538;8.584;2023-01-08T03:59:07;8.10;;;4.55;;
66521;SDS011;53349;53.538;8.584;2023-01-08T04:01:32;8.97;;;4.60;;
66521;SDS011;53349;53.538;8.584;2023-01-08T04:03:59;7.90;;;4.32;;
66521;SDS011;53349;53.538;8.584;2023-01-08T04:06:26;8.57;;;4.35;;
66521;SDS011;53349;53.538;8.584;2023-01-08T04:08:51;8.27;;;4.57;;
66521;SDS011;53349;53.538;8.584;2023-01-08T04:11:17;8.57;;;4.60;;
66521;SDS011;53349;53.538;8.584;2023-01-08T04:13:42;9.70;;;4.90;;
66521;SDS011;53349;53.538;8.584;2023-01-08T04:16:10;8.47;;;4.27;;
66521;SDS011;53349;53.538;8.584;2023-01-08T04:18:36;7.93;;;4.72;;
66521;SDS011;53349;53.538;8.584;2023-01-08T04:21:01;8.27;;;4.57;;
66521;SDS011;53349;53.538;8.584;2023-01-08T04:23:28;9.18;;;4.93;;
66521;SDS011;53349;53.538;8.584;2023-01-08T04:25:54;9.07;;;5.20;;
66521;SDS011;53349;53.538;8.584;2023-01-08T04:28:20;9.73;;;5.70;;
66521;SDS011;53349;53.538;8.584;2023-01-08T04:30:45;9.73;;;5.80;;
66521;SDS011;53349;53.538;8.584;2023-01-08T04:33:12;8.18;;;5.07;;
66521;SDS011;53349;53.538;8.584;2023-01-08T04:35:39;8.27;;;5.55;;
66521;SDS011;53349;53.538;8.584;2023-01-08T04:38:04;10.10;;;5.33;;
66521;SDS011;53349;53.538;8.584;2023-01-08T04:40:31;8.53;;;5.27;;
66521;SDS011;53349;53.538;8.584;2023-01-08T04:42:57;10.13;;;5.20;;
66521;SDS011;53349;53.538;8.584;2023-01-08T04:45:23;10.23;;;5.35;;
66521;SDS011;53349;53.538;8.584;2023-01-08T04:47:53;8.68;;;4.82;;
66521;SDS011;53349;53.538;8.584;2023-01-08T04:50:22;7.55;;;4.65;;
66521;SDS011;53349;53.538;8.584;2023-01-08T04:52:48;8.95;;;4.82;;
66521;SDS011;53349;53.538;8.584;2023-01-08T04:55:14;9.27;;;4.43;;
66521;SDS011;53349;53.538;8.584;2023-01-08T04:57:39;9.77;;;4.57;;
66521;SDS011;53349;53.538;8.584;2023-01-08T05:00:05;9.67;;;5.03;;
66521;SDS011;53349;53.538;8.584;2023-01-08T05:02:31;8.68;;;5.00;;
66521;SDS011;53349;53.538;8.584;2023-01-08T05:04:56;8.13;;;4.63;;
66521;SDS011;53349;53.538;8.584;2023-01-08T05:07:22;9.43;;;4.77;;
66521;SDS011;53349;53.538;8.584;2023-01-08T05:09:47;9.27;;;4.93;;
66521;SDS011;53349;53.538;8.584;2023-01-08T05:12:13;9.70;;;4.97;;
66521;SDS011;53349;53.538;8.584;2023-01-08T05:14:38;8.77;;;5.13;;
66521;SDS011;53349;53.538;8.584;2023-01-08T05:17:03;8.17;;;4.93;;
66521;SDS011;53349;53.538;8.584;2023-01-08T05:19:29;9.63;;;4.78;;
66521;SDS011;53349;53.538;8.584;2023-01-08T05:21:55;8.50;;;4.83;;
66521;SDS011;53349;53.538;8.584;2023-01-08T05:24:20;9.40;;;4.77;;
66521;SDS011;53349;53.538;8.584;2023-01-08T05:26:47;9.55;;;5.13;;
66521;SDS011;53349;53.538;8.584;2023-01-08T05:29:12;9.13;;;4.80;;
66521;SDS011;53349;53.538;8.584;2023-01-08T05:31:38;9.73;;;4.88;;
66521;SDS011;53349;53.538;8.584;2023-01-08T05:34:03;9.25;;;4.75;;
66521;SDS011;53349;53.538;8.584;2023-01-08T05:36:28;10.00;;;4.87;;
66521;SDS011;53349;53.538;8.584;2023-01-08T05:38:54;11.93;;;4.63;;
66521;SDS011;53349;53.538;8.584;2023-01-08T05:41:21;8.18;;;4.07;;
66521;SDS011;53349;53.538;8.584;2023-01-08T05:43:46;7.97;;;4.33;;
66521;SDS011;53349;53.538;8.584;2023-01-08T05:46:12;8.70;;;4.20;;
66521;SDS011;53349;53.538;8.584;2023-01-08T05:48:38;9.03;;;4.30;;
66521;SDS011;53349;53.538;8.584;2023-01-08T05:51:03;8.40;;;4.15;;
66521;SDS011;53349;53.538;8.584;2023-01-08T05:53:29;8.27;;;4.33;;
66521;SDS011;53349;53.538;8.584;2023-01-08T05:55:59;9.15;;;4.10;;
66521;SDS011;53349;53.538;8.584;2023-01-08T05:58:29;8.43;;;4.13;;
66521;SDS011;53349;53.538;8.584;2023-01-08T06:01:03;7.87;;;3.80;;
66521;SDS011;53349;53.538;8.584;2023-01-08T06:03:33;9.38;;;4.03;;
66521;SDS011;53349;53.538;8.584;2023-01-08T06:06:02;6.83;;;3.80;;
66521;SDS011;53349;53.538;8.584;2023-01-08T06:08:29;8.93;;;3.75;;
66521;SDS011;53349;53.538;8.584;2023-01-08T06:10:59;8.90;;;3.65;;
66521;SDS011;53349;53.538;8.584;2023-01-08T06:13:27;7.53;;;3.30;;
66521;SDS011;53349;53.538;8.584;2023-01-08T06:15:52;7.65;;;3.28;;
66521;SDS011;53349;53.538;8.584;2023-01-08T06:18:18;7.03;;;3.60;;
66521;SDS011;53349;53.538;8.584;2023-01-08T06:20:44;11.07;;;3.55;;
66521;SDS011;53349;53.538;8.584;2023-01-08T06:23:09;8.20;;;3.60;;
66521;SDS011;53349;53.538;8.584;2023-01-08T06:25:35;8.53;;;3.70;;
66521;SDS011;53349;53.538;8.584;2023-01-08T06:28:02;8.27;;;4.25;;
66521;SDS011;53349;53.538;8.584;2023-01-08T06:30:29;7.75;;;3.90;;
66521;SDS011;53349;53.538;8.584;2023-01-08T06:32:55;8.35;;;4.20;;
66521;SDS011;53349;53.538;8.584;2023-01-08T06:35:21;8.75;;;4.32;;
66521;SDS011;53349;53.538;8.584;2023-01-08T06:37:48;7.77;;;4.10;;
66521;SDS011;53349;53.538;8.584;2023-01-08T06:40:14;8.48;;;4.20;;
66521;SDS011;53349;53.538;8.584;2023-01-08T06:42:40;10.02;;;4.75;;
66521;SDS011;53349;53.538;8.584;2023-01-08T06:45:07;9.63;;;4.13;;
66521;SDS011;53349;53.538;8.584;2023-01-08T06:47:33;10.68;;;3.85;;
66521;SDS011;53349;53.538;8.584;2023-01-08T06:49:59;8.90;;;3.77;;
66521;SDS011;53349;53.538;8.584;2023-01-08T06:52:24;7.18;;;3.80;;
66521;SDS011;53349;53.538;8.584;2023-01-08T06:54:50;8.83;;;4.00;;
66521;SDS011;53349;53.538;8.584;2023-01-08T06:57:15;8.23;;;3.80;;
66521;SDS011;53349;53.538;8.584;2023-01-08T06:59:41;9.10;;;4.33;;
66521;SDS011;53349;53.538;8.584;2023-01-08T07:02:12;7.67;;;4.20;;
66521;SDS011;53349;53.538;8.584;2023-01-08T07:04:38;9.18;;;4.10;;
66521;SDS011;53349;53.538;8.584;2023-01-08T07:07:04;7.68;;;4.40;;
66521;SDS011;53349;53.538;8.584;2023-01-08T07:09:30;10.23;;;4.27;;
66521;SDS011;53349;53.538;8.584;2023-01-08T07:11:55;9.80;;;4.25;;
66521;SDS011;53349;53.538;8.584;2023-01-08T07:14:21;9.93;;;4.33;;
66521;SDS011;53349;53.538;8.584;2023-01-08T07:16:48;10.43;;;4.47;;
66521;SDS011;53349;53.538;8.584;2023-01-08T07:19:14;9.87;;;3.93;;
66521;SDS011;53349;53.538;8.584;2023-01-08T07:21:39;9.97;;;4.60;;
66521;SDS011;53349;53.538;8.584;2023-01-08T07:24:09;8.98;;;4.30;;
66521;SDS011;53349;53.538;8.584;2023-01-08T07:26:36;8.77;;;4.60;;
66521;SDS011;53349;53.538;8.584;2023-01-08T07:29:02;8.83;;;3.83;;
66521;SDS011;53349;53.538;8.584;2023-01-08T07:31:28;7.85;;;3.40;;
66521;SDS011;53349;53.538;8.584;2023-01-08T07:33:53;7.83;;;3.27;;
66521;SDS011;53349;53.538;8.584;2023-01-08T07:36:19;6.63;;;3.60;;
66521;SDS011;53349;53.538;8.584;2023-01-08T07:38:44;8.70;;;3.90;;
66521;SDS011;53349;53.538;8.584;2023-01-08T07:41:09;8.18;;;3.90;;
66521;SDS011;53349;53.538;8.584;2023-01-08T07:43:35;9.57;;;3.80;;
66521;SDS011;53349;53.538;8.584;2023-01-08T07:46:01;8.83;;;4.60;;
66521;SDS011;53349;53.538;8.584;2023-01-08T07:48:27;8.27;;;4.63;;
66521;SDS011;53349;53.538;8.584;2023-01-08T07:50:52;10.20;;;5.00;;
66521;SDS011;53349;53.538;8.584;2023-01-08T07:53:18;7.93;;;4.10;;
66521;SDS011;53349;53.538;8.584;2023-01-08T07:55:43;7.85;;;3.90;;
66521;SDS011;53349;53.538;8.584;2023-01-08T07:58:09;11.40;;;4.15;;
66521;SDS011;53349;53.538;8.584;2023-01-08T08:00:37;8.82;;;3.72;;
66521;SDS011;53349;53.538;8.584;2023-01-08T08:03:05;8.85;;;4.10;;
66521;SDS011;53349;53.538;8.584;2023-01-08T08:05:33;9.53;;;3.80;;
66521;SDS011;53349;53.538;8.584;2023-01-08T08:08:00;8.80;;;4.18;;
66521;SDS011;53349;53.538;8.584;2023-01-08T08:10:31;9.90;;;4.38;;
66521;SDS011;53349;53.538;8.584;2023-01-08T08:12:57;8.50;;;3.87;;
66521;SDS011;53349;53.538;8.584;2023-01-08T08:15:22;9.23;;;4.30;;
66521;SDS011;53349;53.538;8.584;2023-01-08T08:17:48;7.85;;;3.38;;
66521;SDS011;53349;53.538;8.584;2023-01-08T08:20:14;8.83;;;4.07;;
66521;SDS011;53349;53.538;8.584;2023-01-08T08:22:41;8.10;;;3.80;;
66521;SDS011;53349;53.538;8.584;2023-01-08T08:25:08;9.68;;;4.55;;
66521;SDS011;53349;53.538;8.584;2023-01-08T08:27:35;8.65;;;4.38;;
66521;SDS011;53349;53.538;8.584;2023-01-08T08:30:01;9.97;;;3.80;;
66521;SDS011;53349;53.538;8.584;2023-01-08T08:32:27;6.50;;;3.42;;
66521;SDS011;53349;53.538;8.584;2023-01-08T08:34:52;6.73;;;3.23;;
66521;SDS011;53349;53.538;8.584;2023-01-08T08:37:18;8.20;;;3.50;;
66521;SDS011;53349;53.538;8.584;2023-01-08T08:39:43;6.63;;;3.60;;
66521;SDS011;53349;53.538;8.584;2023-01-08T08:42:09;8.40;;;3.63;;
66521;SDS011;53349;53.538;8.584;2023-01-08T08:44:34;7.43;;;3.23;;
66521;SDS011;53349;53.538;8.584;2023-01-08T08:47:00;7.90;;;3.43;;
66521;SDS011;53349;53.538;8.584;2023-01-08T08:49:25;9.48;;;3.20;;
66521;SDS011;53349;53.538;8.584;2023-01-08T08:51:50;6.57;;;3.17;;
66521;SDS011;53349;53.538;8.584;2023-01-08T08:54:16;5.20;;;2.93;;
66521;SDS011;53349;53.538;8.584;2023-01-08T08:56:41;6.47;;;2.67;;
66521;SDS011;53349;53.538;8.584;2023-01-08T08:59:08;7.18;;;2.88;;
66521;SDS011;53349;53.538;8.584;2023-01-08T09:01:34;8.35;;;2.60;;
66521;SDS011;53349;53.538;8.584;2023-01-08T09:03:59;6.23;;;2.53;;
66521;SDS011;53349;53.538;8.584;2023-01-08T09:06:25;6.40;;;2.73;;
66521;SDS011;53349;53.538;8.584;2023-01-08T09:08:50;5.30;;;2.78;;
66521;SDS011;53349;53.538;8.584;2023-01-08T09:11:15;8.07;;;3.03;;
66521;SDS011;53349;53.538;8.584;2023-01-08T09:13:41;6.03;;;2.57;;
66521;SDS011;53349;53.538;8.584;2023-01-08T09:16:08;9.00;;;3.10;;
66521;SDS011;53349;53.538;8.584;2023-01-08T09:18:33;6.68;;;3.00;;
66521;SDS011;53349;53.538;8.584;2023-01-08T09:21:02;5.63;;;2.60;;
66521;SDS011;53349;53.538;8.584;2023-01-08T09:23:29;6.18;;;2.53;;
66521;SDS011;53349;53.538;8.584;2023-01-08T09:25:58;6.90;;;2.63;;
66521;SDS011;53349;53.538;8.584;2023-01-08T09:28:28;5.22;;;2.20;;
66521;SDS011;53349;53.538;8.584;2023-01-08T09:30:53;8.67;;;2.30;;
66521;SDS011;53349;53.538;8.584;2023-01-08T09:33:18;5.85;;;2.17;;
66521;SDS011;53349;53.538;8.584;2023-01-08T09:35:44;4.15;;;1.67;;
66521;SDS011;53349;53.538;8.584;2023-01-08T09:38:10;6.27;;;2.00;;
66521;SDS011;53349;53.538;8.584;2023-01-08T09:40:37;3.90;;;1.90;;
66521;SDS011;53349;53.538;8.584;2023-01-08T09:43:04;5.32;;;1.75;;
66521;SDS011;53349;53.538;8.584;2023-01-08T09:45:30;4.55;;;1.50;;
66521;SDS011;53349;53.538;8.584;2023-01-08T09:48:04;5.60;;;1.70;;
66521;SDS011;53349;53.538;8.584;2023-01-08T09:50:35;4.70;;;1.70;;
66521;SDS011;53349;53.538;8.584;2023-01-08T09:53:00;4.68;;;1.55;;
66521;SDS011;53349;53.538;8.584;2023-01-08T09:55:32;5.20;;;1.20;;
66521;SDS011;53349;53.538;8.584;2023-01-08T09:58:00;4.47;;;1.40;;
66521;SDS011;53349;53.538;8.584;2023-01-08T10:00:30;3.47;;;1.37;;
66521;SDS011;53349;53.538;8.584;2023-01-08T10:03:10;2.70;;;1.00;;
66521;SDS011;53349;53.538;8.584;2023-01-08T10:06:10;4.32;;;1.10;;
66521;SDS011;53349;53.538;8.584;2023-01-08T10:08:43;3.60;;;0.90;;
66521;SDS011;53349;53.538;8.584;2023-01-08T10:11:12;3.50;;;0.88;;
66521;SDS011;53349;53.538;8.584;2023-01-08T10:13:39;3.80;;;0.90;;
66521;SDS011;53349;53.538;8.584;2023-01-08T10:16:08;4.20;;;1.00;;
66521;SDS011;53349;53.538;8.584;2023-01-08T10:18:44;3.95;;;0.90;;
66521;SDS011;53349;53.538;8.584;2023-01-08T10:21:12;2.28;;;0.77;;
66521;SDS011;53349;53.538;8.584;2023-01-08T10:23:47;3.53;;;0.98;;
66521;SDS011;53349;53.538;8.584;2023-01-08T10:26:26;3.75;;;1.00;;
66521;SDS011;53349;53.538;8.584;2023-01-08T10:29:06;2.40;;;0.90;;
66521;SDS011;53349;53.538;8.584;2023-01-08T10:31:38;5.63;;;1.00;;
66521;SDS011;53349;53.538;8.584;2023-01-08T10:36:57;4.55;;;0.82;;
66521;SDS011;53349;53.538;8.584;2023-01-08T10:39:25;5.00;;;0.90;;
66521;SDS011;53349;53.538;8.584;2023-01-08T10:41:54;5.50;;;1.00;;
66521;SDS011;53349;53.538;8.584;2023-01-08T10:44:22;3.67;;;0.80;;
66521;SDS011;53349;53.538;8.584;2023-01-08T10:46:50;3.00;;;0.70;;
66521;SDS011;53349;53.538;8.584;2023-01-08T10:51:58;3.22;;;0.80;;
66521;SDS011;53349;53.538;8.584;2023-01-08T10:54:41;4.10;;;1.20;;
66521;SDS011;53349;53.538;8.584;2023-01-08T11:00:25;3.50;;;1.05;;
66521;SDS011;53349;53.538;8.584;2023-01-08T11:19:18;4.80;;;1.33;;
66521;SDS011;53349;53.538;8.584;2023-01-08T11:27:18;3.85;;;1.30;;
66521;SDS011;53349;53.538;8.584;2023-01-08T11:35:49;2.47;;;0.93;;
66521;SDS011;53349;53.538;8.584;2023-01-08T11:46:53;3.92;;;0.98;;
66521;SDS011;53349;53.538;8.584;2023-01-08T11:49:38;4.60;;;1.10;;
66521;SDS011;53349;53.538;8.584;2023-01-08T11:55:42;4.00;;;1.50;;
66521;SDS011;53349;53.538;8.584;2023-01-08T11:58:34;5.32;;;1.00;;
66521;SDS011;53349;53.538;8.584;2023-01-08T12:08:04;4.95;;;1.30;;
66521;SDS011;53349;53.538;8.584;2023-01-08T12:10:59;5.57;;;1.77;;
66521;SDS011;53349;53.538;8.584;2023-01-08T12:13:54;5.70;;;1.50;;
66521;SDS011;53349;53.538;8.584;2023-01-08T12:22:45;4.53;;;1.05;;
66521;SDS011;53349;53.538;8.584;2023-01-08T12:28:27;4.20;;;1.00;;
66521;SDS011;53349;53.538;8.584;2023-01-08T12:36:35;3.63;;;1.10;;
66521;SDS011;53349;53.538;8.584;2023-01-08T12:39:11;4.35;;;0.80;;
66521;SDS011;53349;53.538;8.584;2023-01-08T12:41:41;4.68;;;1.08;;
66521;SDS011;53349;53.538;8.584;2023-01-08T12:44:12;5.10;;;0.98;;
66521;SDS011;53349;53.538;8.584;2023-01-08T12:46:47;5.38;;;1.15;;
66521;SDS011;53349;53.538;8.584;2023-01-08T12:49:16;5.97;;;1.20;;
66521;SDS011;53349;53.538;8.584;2023-01-08T12:55:16;4.93;;;1.00;;
66521;SDS011;53349;53.538;8.584;2023-01-08T12:58:06;7.07;;;0.93;;
66521;SDS011;53349;53.538;8.584;2023-01-08T13:01:10;4.60;;;0.88;;
66521;SDS011;53349;53.538;8.584;2023-01-08T13:03:47;6.95;;;1.00;;
66521;SDS011;53349;53.538;8.584;2023-01-08T13:06:14;3.92;;;0.93;;
66521;SDS011;53349;53.538;8.584;2023-01-08T13:08:43;3.60;;;0.63;;
66521;SDS011;53349;53.538;8.584;2023-01-08T13:11:22;6.65;;;1.00;;
66521;SDS011;53349;53.538;8.584;2023-01-08T13:14:00;9.38;;;1.10;;
66521;SDS011;53349;53.538;8.584;2023-01-08T13:16:27;4.90;;;1.10;;
66521;SDS011;53349;53.538;8.584;2023-01-08T13:18:55;5.00;;;0.80;;
66521;SDS011;53349;53.538;8.584;2023-01-08T13:21:40;4.88;;;0.80;;
66521;SDS011;53349;53.538;8.584;2023-01-08T13:27:10;6.00;;;0.95;;
66521;SDS011;53349;53.538;8.584;2023-01-08T13:29:43;4.82;;;0.70;;
66521;SDS011;53349;53.538;8.584;2023-01-08T13:35:17;5.15;;;1.15;;
66521;SDS011;53349;53.538;8.584;2023-01-08T13:37:46;6.70;;;0.93;;
66521;SDS011;53349;53.538;8.584;2023-01-08T13:40:35;4.65;;;0.80;;
66521;SDS011;53349;53.538;8.584;2023-01-08T13:43:02;6.00;;;1.00;;
66521;SDS011;53349;53.538;8.584;2023-01-08T13:45:35;5.65;;;1.08;;
66521;SDS011;53349;53.538;8.584;2023-01-08T13:48:00;5.30;;;1.00;;
66521;SDS011;53349;53.538;8.584;2023-01-08T13:50:26;5.78;;;0.98;;
66521;SDS011;53349;53.538;8.584;2023-01-08T13:53:02;6.35;;;0.93;;
66521;SDS011;53349;53.538;8.584;2023-01-08T13:55:35;6.35;;;0.80;;
66521;SDS011;53349;53.538;8.584;2023-01-08T13:58:07;20.40;;;3.65;;
66521;SDS011;53349;53.538;8.584;2023-01-08T14:06:12;5.25;;;1.30;;
66521;SDS011;53349;53.538;8.584;2023-01-08T14:08:48;5.32;;;0.88;;
66521;SDS011;53349;53.538;8.584;2023-01-08T14:43:45;5.00;;;0.77;;
66521;SDS011;53349;53.538;8.584;2023-01-08T14:46:25;4.07;;;0.80;;
66521;SDS011;53349;53.538;8.584;2023-01-08T14:48:53;6.38;;;1.15;;
66521;SDS011;53349;53.538;8.584;2023-01-08T14:51:22;9.68;;;1.30;;
66521;SDS011;53349;53.538;8.584;2023-01-08T14:53:55;8.57;;;1.30;;
66521;SDS011;53349;53.538;8.584;2023-01-08T14:56:26;9.20;;;1.70;;
66521;SDS011;53349;53.538;8.584;2023-01-08T14:58:56;8.32;;;1.00;;
66521;SDS011;53349;53.538;8.584;2023-01-08T15:01:28;8.43;;;1.40;;
66521;SDS011;53349;53.538;8.584;2023-01-08T15:07:06;6.93;;;1.20;;
66521;SDS011;53349;53.538;8.584;2023-01-08T15:09:35;8.05;;;1.00;;
66521;SDS011;53349;53.538;8.584;2023-01-08T15:12:03;6.28;;;1.20;;
66521;SDS011;53349;53.538;8.584;2023-01-08T15:24:54;9.93;;;1.50;;
66521;SDS011;53349;53.538;8.584;2023-01-08T15:40:59;5.47;;;1.77;;
66521;SDS011;53349;53.538;8.584;2023-01-08T16:04:42;7.40;;;1.75;;
66521;SDS011;53349;53.538;8.584;2023-01-08T16:07:08;10.02;;;2.20;;
66521;SDS011;53349;53.538;8.584;2023-01-08T16:09:33;10.48;;;2.95;;
66521;SDS011;53349;53.538;8.584;2023-01-08T16:11:59;11.00;;;2.40;;
66521;SDS011;53349;53.538;8.584;2023-01-08T16:14:25;11.63;;;2.03;;
66521;SDS011;53349;53.538;8.584;2023-01-08T16:16:50;9.20;;;1.93;;
66521;SDS011;53349;53.538;8.584;2023-01-08T16:19:18;8.73;;;2.15;;
66521;SDS011;53349;53.538;8.584;2023-01-08T16:21:44;12.27;;;2.25;;
66521;SDS011;53349;53.538;8.584;2023-01-08T16:24:11;13.60;;;5.13;;
66521;SDS011;53349;53.538;8.584;2023-01-08T16:26:36;16.00;;;5.87;;
66521;SDS011;53349;53.538;8.584;2023-01-08T16:29:06;11.50;;;4.15;;
66521;SDS011;53349;53.538;8.584;2023-01-08T16:31:31;10.20;;;3.60;;
66521;SDS011;53349;53.538;8.584;2023-01-08T16:34:01;13.45;;;5.75;;
66521;SDS011;53349;53.538;8.584;2023-01-08T16:36:27;9.18;;;3.40;;
66521;SDS011;53349;53.538;8.584;2023-01-08T16:38:54;7.90;;;2.55;;
66521;SDS011;53349;53.538;8.584;2023-01-08T16:41:22;8.13;;;3.05;;
66521;SDS011;53349;53.538;8.584;2023-01-08T16:43:49;11.07;;;3.20;;
66521;SDS011;53349;53.538;8.584;2023-01-08T16:46:16;12.52;;;2.47;;
66521;SDS011;53349;53.538;8.584;2023-01-08T16:48:43;7.22;;;2.58;;
66521;SDS011;53349;53.538;8.584;2023-01-08T16:56:23;11.90;;;3.20;;
66521;SDS011;53349;53.538;8.584;2023-01-08T16:58:54;9.35;;;2.80;;
66521;SDS011;53349;53.538;8.584;2023-01-08T17:01:22;8.75;;;3.25;;
66521;SDS011;53349;53.538;8.584;2023-01-08T17:03:56;13.18;;;3.25;;
66521;SDS011;53349;53.538;8.584;2023-01-08T17:06:53;9.68;;;3.20;;
66521;SDS011;53349;53.538;8.584;2023-01-08T17:09:39;10.47;;;3.23;;
66521;SDS011;53349;53.538;8.584;2023-01-08T17:12:06;9.30;;;3.67;;
66521;SDS011;53349;53.538;8.584;2023-01-08T17:14:32;9.93;;;3.27;;
66521;SDS011;53349;53.538;8.584;2023-01-08T17:17:01;10.50;;;3.40;;
66521;SDS011;53349;53.538;8.584;2023-01-08T17:19:39;7.57;;;2.90;;
66521;SDS011;53349;53.538;8.584;2023-01-08T17:22:10;15.02;;;3.95;;
66521;SDS011;53349;53.538;8.584;2023-01-08T17:24:35;8.90;;;3.60;;
66521;SDS011;53349;53.538;8.584;2023-01-08T17:27:01;11.10;;;2.60;;
66521;SDS011;53349;53.538;8.584;2023-01-08T17:29:26;12.93;;;3.60;;
66521;SDS011;53349;53.538;8.584;2023-01-08T17:31:52;11.13;;;3.58;;
66521;SDS011;53349;53.538;8.584;2023-01-08T17:34:21;10.05;;;3.63;;
66521;SDS011;53349;53.538;8.584;2023-01-08T17:36:52;9.82;;;3.30;;
66521;SDS011;53349;53.538;8.584;2023-01-08T17:39:24;8.40;;;2.63;;
66521;SDS011;53349;53.538;8.584;2023-01-08T17:44:56;7.72;;;2.60;;
66521;SDS011;53349;53.538;8.584;2023-01-08T17:48:08;16.05;;;3.78;;
66521;SDS011;53349;53.538;8.584;2023-01-08T17:50:38;9.57;;;2.83;;
66521;SDS011;53349;53.538;8.584;2023-01-08T17:53:08;15.00;;;3.13;;
66521;SDS011;53349;53.538;8.584;2023-01-08T17:55:56;10.02;;;3.38;;
66521;SDS011;53349;53.538;8.584;2023-01-08T17:58:31;14.15;;;4.15;;
66521;SDS011;53349;53.538;8.584;2023-01-08T18:00:57;12.18;;;3.53;;
66521;SDS011;53349;53.538;8.584;2023-01-08T18:03:28;13.15;;;3.60;;
66521;SDS011;53349;53.538;8.584;2023-01-08T18:05:56;9.48;;;3.67;;
66521;SDS011;53349;53.538;8.584;2023-01-08T18:08:24;10.52;;;3.60;;
66521;SDS011;53349;53.538;8.584;2023-01-08T18:10:54;9.60;;;2.67;;
66521;SDS011;53349;53.538;8.584;2023-01-08T18:13:28;9.80;;;2.90;;
66521;SDS011;53349;53.538;8.584;2023-01-08T18:16:05;9.25;;;2.67;;